sensor_id;sensor_type;location;lat;lon;timestamp;P1;durP1;ratioP1;P2;durP2;ratioP2
39620;SDS011;25309;48.686;9.170;2023-07-24T00:01:23;8.77;;;5.93;;
39620;SDS011;25309;48.686;9.170;2023-07-24T00:03:50;9.13;;;6.43;;
39620;SDS011;25309;48.686;9.170;2023-07-24T00:06:18;8.57;;;6.17;;
39620;SDS011;25309;48.686;9.170;2023-07-24T00:08:45;9.27;;;5.90;;
39620;SDS011;25309;48.686;9.170;2023-07-24T00:11:12;9.30;;;6.00;;
39620;SDS011;25309;48.686;9.170;2023-07-24T00:13:39;8.30;;;5.83;;
39620;SDS011;25309;48.686;9.170;2023-07-24T00:16:07;8.77;;;5.83;;
39620;SDS011;25309;48.686;9.170;2023-07-24T00:18:34;8.17;;;5.90;;
39620;SDS011;25309;48.686;9.170;2023-07-24T00:21:01;8.33;;;5.73;;
39620;SDS011;25309;48.686;9.170;2023-07-24T00:23:30;8.50;;;5.77;;
39620;SDS011;25309;48.686;9.170;2023-07-24T00:25:57;9.03;;;6.00;;
39620;SDS011;25309;48.686;9.170;2023-07-24T00:28:24;9.30;;;5.83;;
39620;SDS011;25309;48.686;9.170;2023-07-24T00:30:51;8.63;;;6.53;;
39620;SDS011;25309;48.686;9.170;2023-07-24T00:33:18;9.03;;;6.30;;
39620;SDS011;25309;48.686;9.170;2023-07-24T00:35:45;8.40;;;5.90;;
39620;SDS011;25309;48.686;9.170;2023-07-24T00:38:12;8.17;;;6.10;;
39620;SDS011;25309;48.686;9.170;2023-07-24T00:40:41;9.43;;;5.77;;
39620;SDS011;25309;48.686;9.170;2023-07-24T00:43:08;7.67;;;5.70;;
39620;SDS011;25309;48.686;9.170;2023-07-24T00:45:35;8.70;;;6.27;;
39620;SDS011;25309;48.686;9.170;2023-07-24T00:48:02;8.50;;;6.20;;
39620;SDS011;25309;48.686;9.170;2023-07-24T00:50:30;9.07;;;5.87;;
39620;SDS011;25309;48.686;9.170;2023-07-24T00:52:58;9.00;;;6.07;;
39620;SDS011;25309;48.686;9.170;2023-07-24T00:55:25;8.30;;;6.03;;
39620;SDS011;25309;48.686;9.170;2023-07-24T00:57:54;7.70;;;5.93;;
39620;SDS011;25309;48.686;9.170;2023-07-24T01:00:23;8.97;;;6.17;;
39620;SDS011;25309;48.686;9.170;2023-07-24T01:02:50;9.70;;;6.27;;
39620;SDS011;25309;48.686;9.170;2023-07-24T01:05:18;10.33;;;6.57;;
39620;SDS011;25309;48.686;9.170;2023-07-24T01:07:45;9.57;;;6.57;;
39620;SDS011;25309;48.686;9.170;2023-07-24T01:10:14;9.33;;;6.33;;
39620;SDS011;25309;48.686;9.170;2023-07-24T01:12:43;10.07;;;6.30;;
39620;SDS011;25309;48.686;9.170;2023-07-24T01:15:19;8.67;;;6.27;;
39620;SDS011;25309;48.686;9.170;2023-07-24T01:17:53;10.03;;;6.40;;
39620;SDS011;25309;48.686;9.170;2023-07-24T01:20:26;8.57;;;6.50;;
39620;SDS011;25309;48.686;9.170;2023-07-24T01:22:57;9.33;;;5.97;;
39620;SDS011;25309;48.686;9.170;2023-07-24T01:25:46;8.43;;;5.77;;
39620;SDS011;25309;48.686;9.170;2023-07-24T01:28:20;8.90;;;6.20;;
39620;SDS011;25309;48.686;9.170;2023-07-24T01:30:48;8.80;;;5.97;;
39620;SDS011;25309;48.686;9.170;2023-07-24T01:33:15;8.40;;;5.83;;
39620;SDS011;25309;48.686;9.170;2023-07-24T01:35:45;10.03;;;6.47;;
39620;SDS011;25309;48.686;9.170;2023-07-24T01:38:16;9.37;;;6.20;;
39620;SDS011;25309;48.686;9.170;2023-07-24T01:40:46;8.33;;;6.07;;
39620;SDS011;25309;48.686;9.170;2023-07-24T01:43:14;9.53;;;6.90;;
39620;SDS011;25309;48.686;9.170;2023-07-24T01:45:41;9.00;;;5.90;;
39620;SDS011;25309;48.686;9.170;2023-07-24T01:48:08;10.83;;;6.30;;
39620;SDS011;25309;48.686;9.170;2023-07-24T01:50:35;8.83;;;5.63;;
39620;SDS011;25309;48.686;9.170;2023-07-24T01:53:02;8.93;;;6.13;;
39620;SDS011;25309;48.686;9.170;2023-07-24T01:55:29;10.00;;;6.53;;
39620;SDS011;25309;48.686;9.170;2023-07-24T01:57:57;9.07;;;6.03;;
39620;SDS011;25309;48.686;9.170;2023-07-24T02:00:24;9.20;;;6.60;;
39620;SDS011;25309;48.686;9.170;2023-07-24T02:02:57;8.50;;;6.43;;
39620;SDS011;25309;48.686;9.170;2023-07-24T02:05:25;9.27;;;6.37;;
39620;SDS011;25309;48.686;9.170;2023-07-24T02:07:52;10.23;;;6.70;;
39620;SDS011;25309;48.686;9.170;2023-07-24T02:10:19;8.07;;;6.13;;
39620;SDS011;25309;48.686;9.170;2023-07-24T02:12:46;8.40;;;6.10;;
39620;SDS011;25309;48.686;9.170;2023-07-24T02:15:15;9.07;;;6.17;;
39620;SDS011;25309;48.686;9.170;2023-07-24T02:17:42;8.67;;;6.20;;
39620;SDS011;25309;48.686;9.170;2023-07-24T02:20:09;8.33;;;6.03;;
39620;SDS011;25309;48.686;9.170;2023-07-24T02:22:37;9.33;;;6.83;;
39620;SDS011;25309;48.686;9.170;2023-07-24T02:25:05;9.57;;;6.63;;
39620;SDS011;25309;48.686;9.170;2023-07-24T02:27:32;9.13;;;6.63;;
39620;SDS011;25309;48.686;9.170;2023-07-24T02:30:01;9.23;;;6.63;;
39620;SDS011;25309;48.686;9.170;2023-07-24T02:32:30;9.77;;;6.80;;
39620;SDS011;25309;48.686;9.170;2023-07-24T02:34:58;9.83;;;6.60;;
39620;SDS011;25309;48.686;9.170;2023-07-24T02:37:25;9.77;;;6.90;;
39620;SDS011;25309;48.686;9.170;2023-07-24T02:39:52;10.60;;;6.83;;
39620;SDS011;25309;48.686;9.170;2023-07-24T02:42:19;9.13;;;6.20;;
39620;SDS011;25309;48.686;9.170;2023-07-24T02:44:46;10.33;;;6.53;;
39620;SDS011;25309;48.686;9.170;2023-07-24T02:47:13;9.73;;;6.90;;
39620;SDS011;25309;48.686;9.170;2023-07-24T02:49:42;8.73;;;6.43;;
39620;SDS011;25309;48.686;9.170;2023-07-24T02:52:09;8.73;;;6.23;;
39620;SDS011;25309;48.686;9.170;2023-07-24T02:54:36;10.23;;;6.27;;
39620;SDS011;25309;48.686;9.170;2023-07-24T02:57:03;10.13;;;6.53;;
39620;SDS011;25309;48.686;9.170;2023-07-24T02:59:32;8.97;;;6.47;;
39620;SDS011;25309;48.686;9.170;2023-07-24T03:01:59;8.33;;;6.03;;
39620;SDS011;25309;48.686;9.170;2023-07-24T03:04:26;7.87;;;5.80;;
39620;SDS011;25309;48.686;9.170;2023-07-24T03:06:54;9.83;;;6.50;;
39620;SDS011;25309;48.686;9.170;2023-07-24T03:09:21;11.57;;;6.70;;
39620;SDS011;25309;48.686;9.170;2023-07-24T03:11:48;8.50;;;6.43;;
39620;SDS011;25309;48.686;9.170;2023-07-24T03:14:15;10.57;;;6.60;;
39620;SDS011;25309;48.686;9.170;2023-07-24T03:16:43;8.93;;;6.20;;
39620;SDS011;25309;48.686;9.170;2023-07-24T03:19:10;9.87;;;6.30;;
39620;SDS011;25309;48.686;9.170;2023-07-24T03:21:36;8.67;;;6.40;;
39620;SDS011;25309;48.686;9.170;2023-07-24T03:24:05;9.57;;;6.30;;
39620;SDS011;25309;48.686;9.170;2023-07-24T03:26:32;9.00;;;6.13;;
39620;SDS011;25309;48.686;9.170;2023-07-24T03:29:00;9.60;;;6.60;;
39620;SDS011;25309;48.686;9.170;2023-07-24T03:31:27;9.60;;;6.40;;
39620;SDS011;25309;48.686;9.170;2023-07-24T03:33:54;10.23;;;6.70;;
39620;SDS011;25309;48.686;9.170;2023-07-24T03:36:21;8.23;;;5.90;;
39620;SDS011;25309;48.686;9.170;2023-07-24T03:38:50;8.60;;;6.00;;
39620;SDS011;25309;48.686;9.170;2023-07-24T03:41:19;9.20;;;6.50;;
39620;SDS011;25309;48.686;9.170;2023-07-24T03:43:46;9.93;;;6.30;;
39620;SDS011;25309;48.686;9.170;2023-07-24T03:46:13;9.43;;;6.77;;
39620;SDS011;25309;48.686;9.170;2023-07-24T03:48:40;9.87;;;6.63;;
39620;SDS011;25309;48.686;9.170;2023-07-24T03:51:07;8.30;;;5.90;;
39620;SDS011;25309;48.686;9.170;2023-07-24T03:53:35;9.37;;;6.30;;
39620;SDS011;25309;48.686;9.170;2023-07-24T03:56:02;9.93;;;6.50;;
39620;SDS011;25309;48.686;9.170;2023-07-24T03:58:30;9.53;;;5.87;;
39620;SDS011;25309;48.686;9.170;2023-07-24T04:00:57;8.30;;;5.87;;
39620;SDS011;25309;48.686;9.170;2023-07-24T04:03:24;8.27;;;5.83;;
39620;SDS011;25309;48.686;9.170;2023-07-24T04:05:52;7.47;;;5.97;;
39620;SDS011;25309;48.686;9.170;2023-07-24T04:08:18;9.20;;;6.20;;
39620;SDS011;25309;48.686;9.170;2023-07-24T04:10:45;9.80;;;5.60;;
39620;SDS011;25309;48.686;9.170;2023-07-24T04:13:12;10.87;;;6.40;;
39620;SDS011;25309;48.686;9.170;2023-07-24T04:15:41;10.10;;;6.57;;
39620;SDS011;25309;48.686;9.170;2023-07-24T04:18:08;11.17;;;7.00;;
39620;SDS011;25309;48.686;9.170;2023-07-24T04:20:35;8.97;;;6.50;;
39620;SDS011;25309;48.686;9.170;2023-07-24T04:23:02;9.13;;;6.27;;
39620;SDS011;25309;48.686;9.170;2023-07-24T04:25:29;8.57;;;6.30;;
39620;SDS011;25309;48.686;9.170;2023-07-24T04:27:56;9.00;;;6.33;;
39620;SDS011;25309;48.686;9.170;2023-07-24T04:30:23;8.73;;;5.80;;
39620;SDS011;25309;48.686;9.170;2023-07-24T04:32:51;9.13;;;6.23;;
39620;SDS011;25309;48.686;9.170;2023-07-24T04:35:18;10.00;;;6.67;;
39620;SDS011;25309;48.686;9.170;2023-07-24T04:37:45;9.03;;;6.33;;
39620;SDS011;25309;48.686;9.170;2023-07-24T04:40:12;8.90;;;6.00;;
39620;SDS011;25309;48.686;9.170;2023-07-24T04:42:39;9.97;;;6.80;;
39620;SDS011;25309;48.686;9.170;2023-07-24T04:45:07;10.27;;;6.43;;
39620;SDS011;25309;48.686;9.170;2023-07-24T04:47:34;9.83;;;6.50;;
39620;SDS011;25309;48.686;9.170;2023-07-24T04:50:05;8.87;;;6.63;;
39620;SDS011;25309;48.686;9.170;2023-07-24T04:52:32;8.70;;;6.27;;
39620;SDS011;25309;48.686;9.170;2023-07-24T04:54:59;8.27;;;6.17;;
39620;SDS011;25309;48.686;9.170;2023-07-24T04:57:26;9.43;;;6.50;;
39620;SDS011;25309;48.686;9.170;2023-07-24T04:59:53;10.30;;;6.93;;
39620;SDS011;25309;48.686;9.170;2023-07-24T05:02:20;8.30;;;6.13;;
39620;SDS011;25309;48.686;9.170;2023-07-24T05:04:47;9.10;;;6.20;;
39620;SDS011;25309;48.686;9.170;2023-07-24T05:07:15;9.17;;;6.27;;
39620;SDS011;25309;48.686;9.170;2023-07-24T05:09:42;8.93;;;6.23;;
39620;SDS011;25309;48.686;9.170;2023-07-24T05:12:09;8.97;;;6.10;;
39620;SDS011;25309;48.686;9.170;2023-07-24T05:14:36;9.27;;;6.07;;
39620;SDS011;25309;48.686;9.170;2023-07-24T05:17:03;8.20;;;6.17;;
39620;SDS011;25309;48.686;9.170;2023-07-24T05:19:30;10.80;;;6.43;;
39620;SDS011;25309;48.686;9.170;2023-07-24T05:21:57;10.13;;;6.43;;
39620;SDS011;25309;48.686;9.170;2023-07-24T05:24:27;9.47;;;6.57;;
39620;SDS011;25309;48.686;9.170;2023-07-24T05:26:54;9.90;;;6.60;;
39620;SDS011;25309;48.686;9.170;2023-07-24T05:29:21;9.60;;;6.60;;
39620;SDS011;25309;48.686;9.170;2023-07-24T05:31:48;8.50;;;6.33;;
39620;SDS011;25309;48.686;9.170;2023-07-24T05:34:15;9.23;;;7.17;;
39620;SDS011;25309;48.686;9.170;2023-07-24T05:36:42;9.40;;;6.57;;
39620;SDS011;25309;48.686;9.170;2023-07-24T05:39:09;10.17;;;6.67;;
39620;SDS011;25309;48.686;9.170;2023-07-24T05:41:37;10.23;;;6.43;;
39620;SDS011;25309;48.686;9.170;2023-07-24T05:44:06;9.70;;;6.40;;
39620;SDS011;25309;48.686;9.170;2023-07-24T05:46:33;9.70;;;6.57;;
39620;SDS011;25309;48.686;9.170;2023-07-24T05:49:00;9.03;;;6.50;;
39620;SDS011;25309;48.686;9.170;2023-07-24T05:51:27;10.40;;;6.47;;
39620;SDS011;25309;48.686;9.170;2023-07-24T05:53:54;9.50;;;6.63;;
39620;SDS011;25309;48.686;9.170;2023-07-24T05:56:21;10.50;;;6.63;;
39620;SDS011;25309;48.686;9.170;2023-07-24T05:58:50;9.60;;;6.20;;
39620;SDS011;25309;48.686;9.170;2023-07-24T06:01:17;9.33;;;6.43;;
39620;SDS011;25309;48.686;9.170;2023-07-24T06:03:44;10.50;;;6.77;;
39620;SDS011;25309;48.686;9.170;2023-07-24T06:06:11;9.40;;;6.57;;
39620;SDS011;25309;48.686;9.170;2023-07-24T06:08:38;9.57;;;6.60;;
39620;SDS011;25309;48.686;9.170;2023-07-24T06:11:05;9.37;;;6.97;;
39620;SDS011;25309;48.686;9.170;2023-07-24T06:13:32;9.40;;;6.90;;
39620;SDS011;25309;48.686;9.170;2023-07-24T06:16:00;8.90;;;6.40;;
39620;SDS011;25309;48.686;9.170;2023-07-24T06:18:27;9.63;;;6.47;;
39620;SDS011;25309;48.686;9.170;2023-07-24T06:20:54;9.77;;;7.07;;
39620;SDS011;25309;48.686;9.170;2023-07-24T06:23:21;9.47;;;6.53;;
39620;SDS011;25309;48.686;9.170;2023-07-24T06:25:48;9.13;;;7.13;;
39620;SDS011;25309;48.686;9.170;2023-07-24T06:28:15;10.67;;;7.20;;
39620;SDS011;25309;48.686;9.170;2023-07-24T06:30:42;9.53;;;6.63;;
39620;SDS011;25309;48.686;9.170;2023-07-24T06:33:10;9.17;;;6.60;;
39620;SDS011;25309;48.686;9.170;2023-07-24T06:35:37;10.07;;;6.90;;
39620;SDS011;25309;48.686;9.170;2023-07-24T06:38:05;10.10;;;6.07;;
39620;SDS011;25309;48.686;9.170;2023-07-24T06:40:34;9.00;;;6.43;;
39620;SDS011;25309;48.686;9.170;2023-07-24T06:43:01;9.13;;;6.80;;
39620;SDS011;25309;48.686;9.170;2023-07-24T06:45:28;9.20;;;6.63;;
39620;SDS011;25309;48.686;9.170;2023-07-24T06:47:55;9.50;;;6.80;;
39620;SDS011;25309;48.686;9.170;2023-07-24T06:50:24;10.03;;;6.47;;
39620;SDS011;25309;48.686;9.170;2023-07-24T06:52:51;9.93;;;6.40;;
39620;SDS011;25309;48.686;9.170;2023-07-24T06:55:20;9.87;;;6.97;;
39620;SDS011;25309;48.686;9.170;2023-07-24T06:57:47;9.57;;;6.80;;
39620;SDS011;25309;48.686;9.170;2023-07-24T07:00:14;9.93;;;6.67;;
39620;SDS011;25309;48.686;9.170;2023-07-24T07:02:41;10.00;;;6.83;;
39620;SDS011;25309;48.686;9.170;2023-07-24T07:05:08;11.10;;;7.47;;
39620;SDS011;25309;48.686;9.170;2023-07-24T07:07:37;12.93;;;7.07;;
39620;SDS011;25309;48.686;9.170;2023-07-24T07:10:06;12.23;;;7.03;;
39620;SDS011;25309;48.686;9.170;2023-07-24T07:12:33;8.90;;;6.83;;
39620;SDS011;25309;48.686;9.170;2023-07-24T07:15:00;12.67;;;6.90;;
39620;SDS011;25309;48.686;9.170;2023-07-24T07:17:27;9.57;;;7.00;;
39620;SDS011;25309;48.686;9.170;2023-07-24T07:19:54;10.43;;;6.83;;
39620;SDS011;25309;48.686;9.170;2023-07-24T07:22:22;10.00;;;6.67;;
39620;SDS011;25309;48.686;9.170;2023-07-24T07:24:51;9.33;;;6.87;;
39620;SDS011;25309;48.686;9.170;2023-07-24T07:27:18;10.10;;;6.60;;
39620;SDS011;25309;48.686;9.170;2023-07-24T07:29:45;9.07;;;6.77;;
39620;SDS011;25309;48.686;9.170;2023-07-24T07:32:12;9.23;;;6.87;;
39620;SDS011;25309;48.686;9.170;2023-07-24T07:34:39;10.50;;;6.90;;
39620;SDS011;25309;48.686;9.170;2023-07-24T07:37:06;10.23;;;7.07;;
39620;SDS011;25309;48.686;9.170;2023-07-24T07:39:33;11.13;;;6.77;;
39620;SDS011;25309;48.686;9.170;2023-07-24T07:42:02;10.17;;;6.30;;
39620;SDS011;25309;48.686;9.170;2023-07-24T07:44:43;10.47;;;6.83;;
39620;SDS011;25309;48.686;9.170;2023-07-24T07:47:10;10.17;;;7.13;;
39620;SDS011;25309;48.686;9.170;2023-07-24T07:49:37;9.13;;;6.13;;
39620;SDS011;25309;48.686;9.170;2023-07-24T07:52:05;10.60;;;6.40;;
39620;SDS011;25309;48.686;9.170;2023-07-24T07:54:32;10.97;;;6.60;;
39620;SDS011;25309;48.686;9.170;2023-07-24T07:56:59;9.63;;;6.47;;
39620;SDS011;25309;48.686;9.170;2023-07-24T07:59:28;8.87;;;6.57;;
39620;SDS011;25309;48.686;9.170;2023-07-24T08:01:55;11.77;;;7.17;;
39620;SDS011;25309;48.686;9.170;2023-07-24T08:04:22;10.57;;;7.50;;
39620;SDS011;25309;48.686;9.170;2023-07-24T08:06:49;10.13;;;6.80;;
39620;SDS011;25309;48.686;9.170;2023-07-24T08:09:16;8.33;;;6.40;;
39620;SDS011;25309;48.686;9.170;2023-07-24T08:11:44;11.80;;;6.87;;
39620;SDS011;25309;48.686;9.170;2023-07-24T08:14:12;9.00;;;6.57;;
39620;SDS011;25309;48.686;9.170;2023-07-24T08:16:39;9.60;;;6.10;;
39620;SDS011;25309;48.686;9.170;2023-07-24T08:19:06;10.33;;;6.93;;
39620;SDS011;25309;48.686;9.170;2023-07-24T08:21:33;8.47;;;6.37;;
39620;SDS011;25309;48.686;9.170;2023-07-24T08:24:00;9.87;;;6.30;;
39620;SDS011;25309;48.686;9.170;2023-07-24T08:26:28;9.70;;;6.60;;
39620;SDS011;25309;48.686;9.170;2023-07-24T08:28:56;10.40;;;6.90;;
39620;SDS011;25309;48.686;9.170;2023-07-24T08:31:24;11.13;;;6.67;;
39620;SDS011;25309;48.686;9.170;2023-07-24T08:33:51;12.50;;;7.13;;
39620;SDS011;25309;48.686;9.170;2023-07-24T08:36:18;10.57;;;6.63;;
39620;SDS011;25309;48.686;9.170;2023-07-24T08:38:45;11.57;;;7.20;;
39620;SDS011;25309;48.686;9.170;2023-07-24T08:41:14;9.67;;;6.50;;
39620;SDS011;25309;48.686;9.170;2023-07-24T08:43:42;10.37;;;6.43;;
39620;SDS011;25309;48.686;9.170;2023-07-24T08:46:09;10.77;;;6.70;;
39620;SDS011;25309;48.686;9.170;2023-07-24T08:48:39;11.23;;;6.20;;
39620;SDS011;25309;48.686;9.170;2023-07-24T08:51:08;9.80;;;6.57;;
39620;SDS011;25309;48.686;9.170;2023-07-24T08:53:37;9.03;;;6.27;;
39620;SDS011;25309;48.686;9.170;2023-07-24T08:56:05;8.20;;;5.97;;
39620;SDS011;25309;48.686;9.170;2023-07-24T08:58:34;9.13;;;6.13;;
39620;SDS011;25309;48.686;9.170;2023-07-24T09:01:02;11.33;;;6.83;;
39620;SDS011;25309;48.686;9.170;2023-07-24T09:03:30;8.97;;;5.87;;
39620;SDS011;25309;48.686;9.170;2023-07-24T09:05:59;9.77;;;6.27;;
39620;SDS011;25309;48.686;9.170;2023-07-24T09:08:35;9.30;;;5.97;;
39620;SDS011;25309;48.686;9.170;2023-07-24T09:11:03;7.23;;;5.00;;
39620;SDS011;25309;48.686;9.170;2023-07-24T09:13:31;6.93;;;4.90;;
39620;SDS011;25309;48.686;9.170;2023-07-24T09:15:58;6.90;;;4.60;;
39620;SDS011;25309;48.686;9.170;2023-07-24T09:18:25;6.60;;;4.77;;
39620;SDS011;25309;48.686;9.170;2023-07-24T09:20:52;7.60;;;4.67;;
39620;SDS011;25309;48.686;9.170;2023-07-24T09:23:26;7.60;;;4.70;;
39620;SDS011;25309;48.686;9.170;2023-07-24T09:25:57;7.50;;;4.53;;
39620;SDS011;25309;48.686;9.170;2023-07-24T09:28:24;7.40;;;5.00;;
39620;SDS011;25309;48.686;9.170;2023-07-24T09:30:51;6.23;;;4.63;;
39620;SDS011;25309;48.686;9.170;2023-07-24T09:33:19;6.60;;;4.87;;
39620;SDS011;25309;48.686;9.170;2023-07-24T09:35:56;7.10;;;4.70;;
39620;SDS011;25309;48.686;9.170;2023-07-24T09:38:25;7.30;;;4.83;;
39620;SDS011;25309;48.686;9.170;2023-07-24T09:40:53;5.63;;;4.50;;
39620;SDS011;25309;48.686;9.170;2023-07-24T09:43:22;7.13;;;4.40;;
39620;SDS011;25309;48.686;9.170;2023-07-24T09:45:53;7.97;;;5.37;;
39620;SDS011;25309;48.686;9.170;2023-07-24T09:48:22;7.80;;;4.57;;
39620;SDS011;25309;48.686;9.170;2023-07-24T09:50:54;6.53;;;4.50;;
39620;SDS011;25309;48.686;9.170;2023-07-24T09:53:24;7.03;;;4.83;;
39620;SDS011;25309;48.686;9.170;2023-07-24T09:55:59;5.90;;;4.60;;
39620;SDS011;25309;48.686;9.170;2023-07-24T09:58:27;8.30;;;4.63;;
39620;SDS011;25309;48.686;9.170;2023-07-24T10:00:55;7.13;;;5.07;;
39620;SDS011;25309;48.686;9.170;2023-07-24T10:03:23;7.23;;;5.00;;
39620;SDS011;25309;48.686;9.170;2023-07-24T10:05:52;8.23;;;5.47;;
39620;SDS011;25309;48.686;9.170;2023-07-24T10:08:20;6.90;;;5.23;;
39620;SDS011;25309;48.686;9.170;2023-07-24T10:10:48;7.93;;;5.30;;
39620;SDS011;25309;48.686;9.170;2023-07-24T10:13:19;6.87;;;5.27;;
39620;SDS011;25309;48.686;9.170;2023-07-24T10:15:48;8.17;;;5.47;;
39620;SDS011;25309;48.686;9.170;2023-07-24T10:18:16;6.77;;;4.90;;
39620;SDS011;25309;48.686;9.170;2023-07-24T10:20:44;6.60;;;5.23;;
39620;SDS011;25309;48.686;9.170;2023-07-24T10:23:15;6.77;;;5.10;;
39620;SDS011;25309;48.686;9.170;2023-07-24T10:25:44;6.43;;;5.00;;
39620;SDS011;25309;48.686;9.170;2023-07-24T10:28:13;7.17;;;5.27;;
39620;SDS011;25309;48.686;9.170;2023-07-24T10:30:42;8.07;;;5.80;;
39620;SDS011;25309;48.686;9.170;2023-07-24T10:33:11;8.97;;;5.90;;
39620;SDS011;25309;48.686;9.170;2023-07-24T10:35:41;8.27;;;5.40;;
39620;SDS011;25309;48.686;9.170;2023-07-24T10:38:09;7.43;;;5.73;;
39620;SDS011;25309;48.686;9.170;2023-07-24T10:40:37;9.50;;;6.00;;
39620;SDS011;25309;48.686;9.170;2023-07-24T10:43:05;11.60;;;5.60;;
39620;SDS011;25309;48.686;9.170;2023-07-24T10:45:42;9.30;;;6.07;;
39620;SDS011;25309;48.686;9.170;2023-07-24T10:48:13;7.77;;;5.80;;
39620;SDS011;25309;48.686;9.170;2023-07-24T10:50:41;8.37;;;5.90;;
39620;SDS011;25309;48.686;9.170;2023-07-24T10:53:09;8.33;;;6.07;;
39620;SDS011;25309;48.686;9.170;2023-07-24T10:55:37;7.23;;;5.90;;
39620;SDS011;25309;48.686;9.170;2023-07-24T10:58:05;11.00;;;6.57;;
39620;SDS011;25309;48.686;9.170;2023-07-24T11:00:32;9.33;;;6.70;;
39620;SDS011;25309;48.686;9.170;2023-07-24T11:03:01;9.67;;;6.20;;
39620;SDS011;25309;48.686;9.170;2023-07-24T11:05:28;10.10;;;6.47;;
39620;SDS011;25309;48.686;9.170;2023-07-24T11:07:55;8.20;;;6.10;;
39620;SDS011;25309;48.686;9.170;2023-07-24T11:10:23;9.70;;;5.97;;
39620;SDS011;25309;48.686;9.170;2023-07-24T11:12:50;10.03;;;6.30;;
39620;SDS011;25309;48.686;9.170;2023-07-24T11:15:23;8.77;;;5.70;;
39620;SDS011;25309;48.686;9.170;2023-07-24T11:17:52;9.00;;;5.97;;
39620;SDS011;25309;48.686;9.170;2023-07-24T11:20:22;10.27;;;6.43;;
39620;SDS011;25309;48.686;9.170;2023-07-24T11:22:49;9.93;;;6.20;;
39620;SDS011;25309;48.686;9.170;2023-07-24T11:25:16;8.47;;;5.90;;
39620;SDS011;25309;48.686;9.170;2023-07-24T11:27:43;9.73;;;6.23;;
39620;SDS011;25309;48.686;9.170;2023-07-24T11:30:11;10.43;;;6.73;;
39620;SDS011;25309;48.686;9.170;2023-07-24T11:32:39;9.57;;;6.77;;
39620;SDS011;25309;48.686;9.170;2023-07-24T11:35:07;9.10;;;6.13;;
39620;SDS011;25309;48.686;9.170;2023-07-24T11:37:37;9.37;;;5.93;;
39620;SDS011;25309;48.686;9.170;2023-07-24T11:40:04;8.10;;;6.10;;
39620;SDS011;25309;48.686;9.170;2023-07-24T11:42:37;7.80;;;5.77;;
39620;SDS011;25309;48.686;9.170;2023-07-24T11:45:06;9.03;;;6.30;;
39620;SDS011;25309;48.686;9.170;2023-07-24T11:47:43;7.73;;;5.97;;
39620;SDS011;25309;48.686;9.170;2023-07-24T11:50:11;8.57;;;5.70;;
39620;SDS011;25309;48.686;9.170;2023-07-24T11:52:40;7.03;;;5.20;;
39620;SDS011;25309;48.686;9.170;2023-07-24T11:55:09;7.93;;;5.50;;
39620;SDS011;25309;48.686;9.170;2023-07-24T11:57:36;8.53;;;5.83;;
39620;SDS011;25309;48.686;9.170;2023-07-24T12:00:04;7.73;;;5.70;;
39620;SDS011;25309;48.686;9.170;2023-07-24T12:02:33;8.07;;;5.77;;
39620;SDS011;25309;48.686;9.170;2023-07-24T12:05:00;7.53;;;5.37;;
39620;SDS011;25309;48.686;9.170;2023-07-24T12:07:31;6.97;;;5.50;;
39620;SDS011;25309;48.686;9.170;2023-07-24T12:10:00;7.53;;;5.63;;
39620;SDS011;25309;48.686;9.170;2023-07-24T12:12:37;9.23;;;5.87;;
39620;SDS011;25309;48.686;9.170;2023-07-24T12:15:05;7.47;;;5.47;;
39620;SDS011;25309;48.686;9.170;2023-07-24T12:17:33;8.83;;;5.90;;
39620;SDS011;25309;48.686;9.170;2023-07-24T12:20:00;7.73;;;5.73;;
39620;SDS011;25309;48.686;9.170;2023-07-24T12:22:28;9.70;;;5.57;;
39620;SDS011;25309;48.686;9.170;2023-07-24T12:24:56;9.60;;;5.70;;
39620;SDS011;25309;48.686;9.170;2023-07-24T12:27:25;7.60;;;5.37;;
39620;SDS011;25309;48.686;9.170;2023-07-24T12:29:52;8.50;;;5.70;;
39620;SDS011;25309;48.686;9.170;2023-07-24T12:32:19;7.17;;;5.57;;
39620;SDS011;25309;48.686;9.170;2023-07-24T12:34:46;7.73;;;5.10;;
39620;SDS011;25309;48.686;9.170;2023-07-24T12:37:13;7.17;;;4.97;;
39620;SDS011;25309;48.686;9.170;2023-07-24T12:39:41;6.47;;;4.90;;
39620;SDS011;25309;48.686;9.170;2023-07-24T12:42:08;7.63;;;5.07;;
39620;SDS011;25309;48.686;9.170;2023-07-24T12:44:36;8.50;;;5.00;;
39620;SDS011;25309;48.686;9.170;2023-07-24T12:47:03;8.87;;;4.80;;
39620;SDS011;25309;48.686;9.170;2023-07-24T12:49:30;7.27;;;4.80;;
39620;SDS011;25309;48.686;9.170;2023-07-24T12:51:58;6.10;;;4.60;;
39620;SDS011;25309;48.686;9.170;2023-07-24T12:54:25;6.27;;;4.73;;
39620;SDS011;25309;48.686;9.170;2023-07-24T12:57:12;6.07;;;4.80;;
39620;SDS011;25309;48.686;9.170;2023-07-24T12:59:40;6.20;;;4.47;;
39620;SDS011;25309;48.686;9.170;2023-07-24T13:02:07;6.53;;;5.00;;
39620;SDS011;25309;48.686;9.170;2023-07-24T13:04:34;6.57;;;4.80;;
39620;SDS011;25309;48.686;9.170;2023-07-24T13:07:02;5.90;;;4.60;;
39620;SDS011;25309;48.686;9.170;2023-07-24T13:09:30;6.40;;;4.53;;
39620;SDS011;25309;48.686;9.170;2023-07-24T13:11:57;8.40;;;5.30;;
39620;SDS011;25309;48.686;9.170;2023-07-24T13:14:24;6.57;;;4.57;;
39620;SDS011;25309;48.686;9.170;2023-07-24T13:16:53;5.00;;;4.13;;
39620;SDS011;25309;48.686;9.170;2023-07-24T13:19:20;6.03;;;4.20;;
39620;SDS011;25309;48.686;9.170;2023-07-24T13:21:47;5.47;;;4.13;;
39620;SDS011;25309;48.686;9.170;2023-07-24T13:24:14;6.90;;;4.40;;
39620;SDS011;25309;48.686;9.170;2023-07-24T13:26:41;5.37;;;3.90;;
39620;SDS011;25309;48.686;9.170;2023-07-24T13:29:09;6.40;;;4.17;;
39620;SDS011;25309;48.686;9.170;2023-07-24T13:31:36;7.37;;;4.67;;
39620;SDS011;25309;48.686;9.170;2023-07-24T13:34:04;6.30;;;4.60;;
39620;SDS011;25309;48.686;9.170;2023-07-24T13:36:31;5.87;;;4.37;;
39620;SDS011;25309;48.686;9.170;2023-07-24T13:38:58;5.43;;;4.20;;
39620;SDS011;25309;48.686;9.170;2023-07-24T13:41:25;5.83;;;4.57;;
39620;SDS011;25309;48.686;9.170;2023-07-24T13:43:52;5.57;;;4.17;;
39620;SDS011;25309;48.686;9.170;2023-07-24T13:46:19;7.10;;;4.60;;
39620;SDS011;25309;48.686;9.170;2023-07-24T13:48:46;6.87;;;4.50;;
39620;SDS011;25309;48.686;9.170;2023-07-24T13:51:15;4.67;;;3.87;;
39620;SDS011;25309;48.686;9.170;2023-07-24T13:53:42;5.07;;;4.27;;
39620;SDS011;25309;48.686;9.170;2023-07-24T13:56:09;5.80;;;3.90;;
39620;SDS011;25309;48.686;9.170;2023-07-24T13:58:36;7.93;;;4.40;;
39620;SDS011;25309;48.686;9.170;2023-07-24T14:01:03;6.33;;;4.10;;
39620;SDS011;25309;48.686;9.170;2023-07-24T14:03:33;5.10;;;3.60;;
39620;SDS011;25309;48.686;9.170;2023-07-24T14:06:00;5.83;;;4.00;;
39620;SDS011;25309;48.686;9.170;2023-07-24T14:08:29;5.30;;;4.10;;
39620;SDS011;25309;48.686;9.170;2023-07-24T14:10:56;4.30;;;3.50;;
39620;SDS011;25309;48.686;9.170;2023-07-24T14:13:23;6.03;;;3.93;;
39620;SDS011;25309;48.686;9.170;2023-07-24T14:15:50;5.23;;;3.77;;
39620;SDS011;25309;48.686;9.170;2023-07-24T14:18:17;5.30;;;4.03;;
39620;SDS011;25309;48.686;9.170;2023-07-24T14:20:44;5.43;;;3.57;;
39620;SDS011;25309;48.686;9.170;2023-07-24T14:23:13;4.83;;;3.60;;
39620;SDS011;25309;48.686;9.170;2023-07-24T14:25:41;4.97;;;3.60;;
39620;SDS011;25309;48.686;9.170;2023-07-24T14:28:08;5.07;;;3.50;;
39620;SDS011;25309;48.686;9.170;2023-07-24T14:30:36;4.37;;;3.57;;
39620;SDS011;25309;48.686;9.170;2023-07-24T14:33:03;4.73;;;3.63;;
39620;SDS011;25309;48.686;9.170;2023-07-24T14:35:30;5.57;;;3.70;;
39620;SDS011;25309;48.686;9.170;2023-07-24T14:37:56;4.43;;;3.40;;
39620;SDS011;25309;48.686;9.170;2023-07-24T14:40:24;4.50;;;3.40;;
39620;SDS011;25309;48.686;9.170;2023-07-24T14:42:52;4.73;;;3.20;;
39620;SDS011;25309;48.686;9.170;2023-07-24T14:45:19;5.37;;;3.53;;
39620;SDS011;25309;48.686;9.170;2023-07-24T14:47:46;5.10;;;3.33;;
39620;SDS011;25309;48.686;9.170;2023-07-24T14:50:15;4.90;;;3.70;;